sensor_id;sensor_type;location;lat;lon;timestamp;P1;durP1;ratioP1;P2;durP2;ratioP2
66830;SDS011;53739;44.224;22.528;2022-08-26T00:00:49;23.65;;;12.65;;
66830;SDS011;53739;44.224;22.528;2022-08-26T00:03:15;24.85;;;13.00;;
66830;SDS011;53739;44.224;22.528;2022-08-26T00:05:42;28.65;;;12.35;;
66830;SDS011;53739;44.224;22.528;2022-08-26T00:08:10;22.48;;;12.30;;
66830;SDS011;53739;44.224;22.528;2022-08-26T00:10:37;22.00;;;12.85;;
66830;SDS011;53739;44.224;22.528;2022-08-26T00:13:04;26.40;;;12.02;;
66830;SDS011;53739;44.224;22.528;2022-08-26T00:15:33;25.83;;;12.20;;
66830;SDS011;53739;44.224;22.528;2022-08-26T00:18:09;20.95;;;12.98;;
66830;SDS011;53739;44.224;22.528;2022-08-26T00:20:55;26.08;;;13.25;;
66830;SDS011;53739;44.224;22.528;2022-08-26T00:23:27;22.52;;;13.60;;
66830;SDS011;53739;44.224;22.528;2022-08-26T00:38:38;23.05;;;13.15;;
66830;SDS011;53739;44.224;22.528;2022-08-26T00:41:51;24.48;;;13.50;;
66830;SDS011;53739;44.224;22.528;2022-08-26T00:44:30;32.13;;;13.60;;
66830;SDS011;53739;44.224;22.528;2022-08-26T00:46:58;24.10;;;13.77;;
66830;SDS011;53739;44.224;22.528;2022-08-26T00:49:36;23.10;;;13.65;;
66830;SDS011;53739;44.224;22.528;2022-08-26T00:55:26;22.57;;;13.70;;
66830;SDS011;53739;44.224;22.528;2022-08-26T00:57:57;22.08;;;13.00;;
66830;SDS011;53739;44.224;22.528;2022-08-26T01:00:29;21.77;;;13.43;;
66830;SDS011;53739;44.224;22.528;2022-08-26T01:02:56;19.85;;;13.02;;
66830;SDS011;53739;44.224;22.528;2022-08-26T01:05:25;23.15;;;12.70;;
66830;SDS011;53739;44.224;22.528;2022-08-26T01:07:51;25.33;;;14.13;;
66830;SDS011;53739;44.224;22.528;2022-08-26T01:10:21;19.83;;;13.63;;
66830;SDS011;53739;44.224;22.528;2022-08-26T01:12:52;20.35;;;13.27;;
66830;SDS011;53739;44.224;22.528;2022-08-26T01:15:42;19.67;;;12.07;;
66830;SDS011;53739;44.224;22.528;2022-08-26T01:18:13;19.42;;;13.82;;
66830;SDS011;53739;44.224;22.528;2022-08-26T01:23:40;24.05;;;12.77;;
66830;SDS011;53739;44.224;22.528;2022-08-26T01:26:10;20.23;;;12.13;;
66830;SDS011;53739;44.224;22.528;2022-08-26T01:28:39;33.15;;;13.43;;
66830;SDS011;53739;44.224;22.528;2022-08-26T01:31:06;23.67;;;14.70;;
66830;SDS011;53739;44.224;22.528;2022-08-26T01:36:12;26.23;;;14.85;;
66830;SDS011;53739;44.224;22.528;2022-08-26T01:38:39;21.73;;;13.63;;
66830;SDS011;53739;44.224;22.528;2022-08-26T01:41:08;21.42;;;13.73;;
66830;SDS011;53739;44.224;22.528;2022-08-26T01:43:34;23.52;;;14.43;;
66830;SDS011;53739;44.224;22.528;2022-08-26T01:46:03;20.50;;;13.27;;
66830;SDS011;53739;44.224;22.528;2022-08-26T01:48:30;22.90;;;14.55;;
66830;SDS011;53739;44.224;22.528;2022-08-26T01:50:59;26.85;;;14.57;;
66830;SDS011;53739;44.224;22.528;2022-08-26T01:53:28;24.13;;;13.93;;
66830;SDS011;53739;44.224;22.528;2022-08-26T01:55:56;28.98;;;14.35;;
66830;SDS011;53739;44.224;22.528;2022-08-26T01:58:34;23.48;;;14.32;;
66830;SDS011;53739;44.224;22.528;2022-08-26T02:01:06;26.43;;;14.27;;
66830;SDS011;53739;44.224;22.528;2022-08-26T02:03:33;31.52;;;13.60;;
66830;SDS011;53739;44.224;22.528;2022-08-26T02:06:04;21.67;;;14.50;;
66830;SDS011;53739;44.224;22.528;2022-08-26T02:08:38;20.58;;;13.65;;
66830;SDS011;53739;44.224;22.528;2022-08-26T02:11:07;24.45;;;15.85;;
66830;SDS011;53739;44.224;22.528;2022-08-26T02:13:34;26.00;;;14.00;;
66830;SDS011;53739;44.224;22.528;2022-08-26T02:16:04;24.90;;;14.30;;
66830;SDS011;53739;44.224;22.528;2022-08-26T02:18:32;25.25;;;14.88;;
66830;SDS011;53739;44.224;22.528;2022-08-26T02:21:00;28.23;;;14.38;;
66830;SDS011;53739;44.224;22.528;2022-08-26T02:23:46;21.48;;;13.90;;
66830;SDS011;53739;44.224;22.528;2022-08-26T02:26:13;24.88;;;14.20;;
66830;SDS011;53739;44.224;22.528;2022-08-26T02:28:47;21.83;;;13.43;;
66830;SDS011;53739;44.224;22.528;2022-08-26T02:31:19;23.90;;;14.85;;
66830;SDS011;53739;44.224;22.528;2022-08-26T02:33:45;23.33;;;15.05;;
66830;SDS011;53739;44.224;22.528;2022-08-26T02:36:11;29.00;;;14.43;;
66830;SDS011;53739;44.224;22.528;2022-08-26T02:38:42;30.20;;;15.73;;
66830;SDS011;53739;44.224;22.528;2022-08-26T02:41:08;24.48;;;14.43;;
66830;SDS011;53739;44.224;22.528;2022-08-26T02:43:34;24.50;;;13.88;;
66830;SDS011;53739;44.224;22.528;2022-08-26T02:46:00;23.17;;;15.18;;
66830;SDS011;53739;44.224;22.528;2022-08-26T02:48:26;22.98;;;14.82;;
66830;SDS011;53739;44.224;22.528;2022-08-26T02:50:52;21.73;;;14.98;;
66830;SDS011;53739;44.224;22.528;2022-08-26T02:53:20;22.88;;;14.80;;
66830;SDS011;53739;44.224;22.528;2022-08-26T02:55:46;21.65;;;15.25;;
66830;SDS011;53739;44.224;22.528;2022-08-26T02:58:13;22.50;;;15.20;;
66830;SDS011;53739;44.224;22.528;2022-08-26T03:00:40;29.17;;;17.17;;
66830;SDS011;53739;44.224;22.528;2022-08-26T03:03:06;23.73;;;15.10;;
66830;SDS011;53739;44.224;22.528;2022-08-26T03:05:33;24.10;;;15.90;;
66830;SDS011;53739;44.224;22.528;2022-08-26T03:07:59;31.67;;;17.48;;
66830;SDS011;53739;44.224;22.528;2022-08-26T03:10:26;27.58;;;15.65;;
66830;SDS011;53739;44.224;22.528;2022-08-26T03:12:52;30.25;;;14.52;;
66830;SDS011;53739;44.224;22.528;2022-08-26T03:15:18;26.23;;;15.20;;
66830;SDS011;53739;44.224;22.528;2022-08-26T03:17:45;30.85;;;15.93;;
66830;SDS011;53739;44.224;22.528;2022-08-26T03:20:13;23.25;;;15.35;;
66830;SDS011;53739;44.224;22.528;2022-08-26T03:22:39;24.88;;;15.35;;
66830;SDS011;53739;44.224;22.528;2022-08-26T03:25:06;26.58;;;15.80;;
66830;SDS011;53739;44.224;22.528;2022-08-26T03:27:34;27.27;;;16.02;;
66830;SDS011;53739;44.224;22.528;2022-08-26T03:30:00;30.63;;;15.80;;
66830;SDS011;53739;44.224;22.528;2022-08-26T03:32:44;26.42;;;15.73;;
66830;SDS011;53739;44.224;22.528;2022-08-26T03:35:10;22.60;;;16.05;;
66830;SDS011;53739;44.224;22.528;2022-08-26T03:37:39;20.10;;;15.40;;
66830;SDS011;53739;44.224;22.528;2022-08-26T03:40:16;32.55;;;14.95;;
66830;SDS011;53739;44.224;22.528;2022-08-26T03:42:45;28.02;;;16.08;;
66830;SDS011;53739;44.224;22.528;2022-08-26T03:48:46;22.60;;;14.25;;
66830;SDS011;53739;44.224;22.528;2022-08-26T03:58:07;23.17;;;14.48;;
66830;SDS011;53739;44.224;22.528;2022-08-26T04:01:06;20.65;;;13.73;;
66830;SDS011;53739;44.224;22.528;2022-08-26T04:03:52;24.17;;;14.48;;
66830;SDS011;53739;44.224;22.528;2022-08-26T04:10:11;25.98;;;16.30;;
66830;SDS011;53739;44.224;22.528;2022-08-26T04:12:55;23.35;;;16.23;;
66830;SDS011;53739;44.224;22.528;2022-08-26T04:58:57;27.17;;;16.38;;
66830;SDS011;53739;44.224;22.528;2022-08-26T05:26:12;30.13;;;18.77;;
66830;SDS011;53739;44.224;22.528;2022-08-26T05:28:38;29.88;;;17.98;;
66830;SDS011;53739;44.224;22.528;2022-08-26T05:31:23;25.67;;;16.38;;
66830;SDS011;53739;44.224;22.528;2022-08-26T05:33:51;40.10;;;18.27;;
66830;SDS011;53739;44.224;22.528;2022-08-26T05:36:19;40.65;;;16.98;;
66830;SDS011;53739;44.224;22.528;2022-08-26T05:38:52;37.53;;;17.48;;
66830;SDS011;53739;44.224;22.528;2022-08-26T05:41:23;37.72;;;17.13;;
66830;SDS011;53739;44.224;22.528;2022-08-26T05:44:06;32.63;;;17.25;;
66830;SDS011;53739;44.224;22.528;2022-08-26T05:46:47;25.05;;;15.40;;
66830;SDS011;53739;44.224;22.528;2022-08-26T05:49:16;31.85;;;17.20;;
66830;SDS011;53739;44.224;22.528;2022-08-26T05:51:45;23.63;;;14.38;;
66830;SDS011;53739;44.224;22.528;2022-08-26T05:54:12;22.02;;;14.00;;
66830;SDS011;53739;44.224;22.528;2022-08-26T05:56:38;23.13;;;14.35;;
66830;SDS011;53739;44.224;22.528;2022-08-26T06:02:25;24.58;;;14.18;;
66830;SDS011;53739;44.224;22.528;2022-08-26T06:04:52;26.50;;;13.70;;
66830;SDS011;53739;44.224;22.528;2022-08-26T06:07:18;23.27;;;14.55;;
66830;SDS011;53739;44.224;22.528;2022-08-26T06:10:04;21.85;;;13.55;;
66830;SDS011;53739;44.224;22.528;2022-08-26T06:12:30;24.45;;;14.35;;
66830;SDS011;53739;44.224;22.528;2022-08-26T06:14:56;25.05;;;12.90;;
66830;SDS011;53739;44.224;22.528;2022-08-26T06:17:22;32.95;;;14.07;;
66830;SDS011;53739;44.224;22.528;2022-08-26T06:19:48;23.70;;;13.02;;
66830;SDS011;53739;44.224;22.528;2022-08-26T06:22:15;26.80;;;13.75;;
66830;SDS011;53739;44.224;22.528;2022-08-26T06:24:59;22.52;;;13.30;;
66830;SDS011;53739;44.224;22.528;2022-08-26T06:27:43;25.52;;;12.45;;
66830;SDS011;53739;44.224;22.528;2022-08-26T06:30:09;25.73;;;12.50;;
66830;SDS011;53739;44.224;22.528;2022-08-26T06:32:36;25.05;;;13.85;;
66830;SDS011;53739;44.224;22.528;2022-08-26T06:35:02;19.05;;;11.93;;
66830;SDS011;53739;44.224;22.528;2022-08-26T06:37:28;20.67;;;11.27;;
66830;SDS011;53739;44.224;22.528;2022-08-26T06:39:54;19.80;;;11.45;;
66830;SDS011;53739;44.224;22.528;2022-08-26T06:42:20;19.75;;;12.68;;
66830;SDS011;53739;44.224;22.528;2022-08-26T06:44:46;20.60;;;11.45;;
66830;SDS011;53739;44.224;22.528;2022-08-26T06:47:12;19.85;;;11.60;;
66830;SDS011;53739;44.224;22.528;2022-08-26T06:49:38;21.58;;;11.48;;
66830;SDS011;53739;44.224;22.528;2022-08-26T06:52:04;25.58;;;11.10;;
66830;SDS011;53739;44.224;22.528;2022-08-26T06:54:30;21.23;;;10.70;;
66830;SDS011;53739;44.224;22.528;2022-08-26T06:56:57;25.92;;;10.63;;
66830;SDS011;53739;44.224;22.528;2022-08-26T06:59:23;19.98;;;10.98;;
66830;SDS011;53739;44.224;22.528;2022-08-26T07:01:49;22.52;;;12.27;;
66830;SDS011;53739;44.224;22.528;2022-08-26T07:04:16;26.98;;;11.43;;
66830;SDS011;53739;44.224;22.528;2022-08-26T07:06:43;20.02;;;11.23;;
66830;SDS011;53739;44.224;22.528;2022-08-26T07:09:14;24.97;;;11.40;;
66830;SDS011;53739;44.224;22.528;2022-08-26T07:11:41;20.98;;;10.77;;
66830;SDS011;53739;44.224;22.528;2022-08-26T07:14:08;24.83;;;11.05;;
66830;SDS011;53739;44.224;22.528;2022-08-26T07:16:35;18.25;;;10.50;;
66830;SDS011;53739;44.224;22.528;2022-08-26T07:19:03;16.23;;;9.27;;
66830;SDS011;53739;44.224;22.528;2022-08-26T07:21:29;25.65;;;10.30;;
66830;SDS011;53739;44.224;22.528;2022-08-26T07:23:55;25.45;;;9.07;;
66830;SDS011;53739;44.224;22.528;2022-08-26T07:26:22;20.33;;;8.95;;
66830;SDS011;53739;44.224;22.528;2022-08-26T07:28:51;21.05;;;8.57;;
66830;SDS011;53739;44.224;22.528;2022-08-26T07:31:19;25.13;;;9.05;;
66830;SDS011;53739;44.224;22.528;2022-08-26T07:33:46;24.23;;;8.43;;
66830;SDS011;53739;44.224;22.528;2022-08-26T07:36:13;20.73;;;8.63;;
66830;SDS011;53739;44.224;22.528;2022-08-26T07:38:41;21.98;;;8.63;;
66830;SDS011;53739;44.224;22.528;2022-08-26T07:41:08;31.30;;;9.07;;
66830;SDS011;53739;44.224;22.528;2022-08-26T07:43:35;21.83;;;7.85;;
66830;SDS011;53739;44.224;22.528;2022-08-26T07:46:02;23.35;;;7.68;;
66830;SDS011;53739;44.224;22.528;2022-08-26T07:48:29;28.48;;;7.68;;
66830;SDS011;53739;44.224;22.528;2022-08-26T07:51:08;27.20;;;8.23;;
66830;SDS011;53739;44.224;22.528;2022-08-26T07:53:35;21.10;;;8.13;;
66830;SDS011;53739;44.224;22.528;2022-08-26T07:59:02;25.70;;;7.72;;
66830;SDS011;53739;44.224;22.528;2022-08-26T08:01:35;21.38;;;7.20;;
66830;SDS011;53739;44.224;22.528;2022-08-26T08:04:07;23.98;;;7.47;;
66830;SDS011;53739;44.224;22.528;2022-08-26T08:06:39;19.77;;;8.18;;
66830;SDS011;53739;44.224;22.528;2022-08-26T08:09:15;30.48;;;7.88;;
66830;SDS011;53739;44.224;22.528;2022-08-26T08:12:05;29.83;;;7.88;;
66830;SDS011;53739;44.224;22.528;2022-08-26T08:15:04;18.67;;;8.07;;
66830;SDS011;53739;44.224;22.528;2022-08-26T08:17:34;26.05;;;8.13;;
66830;SDS011;53739;44.224;22.528;2022-08-26T08:23:43;22.33;;;8.13;;
66830;SDS011;53739;44.224;22.528;2022-08-26T08:38:33;22.15;;;6.40;;
66830;SDS011;53739;44.224;22.528;2022-08-26T09:05:21;20.58;;;5.72;;
66830;SDS011;53739;44.224;22.528;2022-08-26T09:07:57;22.83;;;5.68;;
66830;SDS011;53739;44.224;22.528;2022-08-26T09:12:56;17.58;;;4.82;;
66830;SDS011;53739;44.224;22.528;2022-08-26T09:23:05;16.75;;;4.97;;
66830;SDS011;53739;44.224;22.528;2022-08-26T09:25:31;10.25;;;4.53;;
66830;SDS011;53739;44.224;22.528;2022-08-26T09:27:57;16.00;;;4.47;;
66830;SDS011;53739;44.224;22.528;2022-08-26T09:30:25;21.52;;;5.43;;
66830;SDS011;53739;44.224;22.528;2022-08-26T09:33:05;22.02;;;5.63;;
66830;SDS011;53739;44.224;22.528;2022-08-26T09:57:16;16.33;;;5.03;;
66830;SDS011;53739;44.224;22.528;2022-08-26T10:14:12;13.65;;;4.32;;
66830;SDS011;53739;44.224;22.528;2022-08-26T10:16:57;12.27;;;4.20;;
66830;SDS011;53739;44.224;22.528;2022-08-26T10:34:24;17.92;;;4.32;;
66830;SDS011;53739;44.224;22.528;2022-08-26T10:36:53;11.93;;;4.25;;
66830;SDS011;53739;44.224;22.528;2022-08-26T10:41:51;14.38;;;4.55;;
66830;SDS011;53739;44.224;22.528;2022-08-26T10:44:21;19.13;;;4.82;;
66830;SDS011;53739;44.224;22.528;2022-08-26T10:46:50;21.27;;;4.57;;
66830;SDS011;53739;44.224;22.528;2022-08-26T10:49:28;11.65;;;4.03;;
66830;SDS011;53739;44.224;22.528;2022-08-26T11:00:41;13.52;;;4.75;;
66830;SDS011;53739;44.224;22.528;2022-08-26T11:06:19;22.63;;;4.82;;
66830;SDS011;53739;44.224;22.528;2022-08-26T11:22:50;13.07;;;4.20;;
66830;SDS011;53739;44.224;22.528;2022-08-26T11:25:22;18.25;;;4.15;;
66830;SDS011;53739;44.224;22.528;2022-08-26T11:27:52;22.75;;;4.43;;
66830;SDS011;53739;44.224;22.528;2022-08-26T11:32:59;24.73;;;4.60;;
66830;SDS011;53739;44.224;22.528;2022-08-26T11:38:00;15.82;;;4.18;;
66830;SDS011;53739;44.224;22.528;2022-08-26T11:40:31;13.73;;;4.20;;
66830;SDS011;53739;44.224;22.528;2022-08-26T11:43:13;13.65;;;4.18;;
66830;SDS011;53739;44.224;22.528;2022-08-26T11:46:04;12.85;;;4.50;;
66830;SDS011;53739;44.224;22.528;2022-08-26T11:48:35;17.73;;;5.00;;
66830;SDS011;53739;44.224;22.528;2022-08-26T11:51:11;14.07;;;3.63;;
66830;SDS011;53739;44.224;22.528;2022-08-26T11:53:46;14.98;;;4.90;;
66830;SDS011;53739;44.224;22.528;2022-08-26T11:56:25;27.25;;;4.85;;
66830;SDS011;53739;44.224;22.528;2022-08-26T11:58:57;15.40;;;4.25;;
66830;SDS011;53739;44.224;22.528;2022-08-26T12:01:30;23.23;;;4.40;;
66830;SDS011;53739;44.224;22.528;2022-08-26T12:04:00;22.38;;;4.88;;
66830;SDS011;53739;44.224;22.528;2022-08-26T12:06:33;19.10;;;4.28;;
66830;SDS011;53739;44.224;22.528;2022-08-26T12:09:10;15.25;;;4.55;;
66830;SDS011;53739;44.224;22.528;2022-08-26T12:11:45;22.55;;;4.82;;
66830;SDS011;53739;44.224;22.528;2022-08-26T12:14:16;16.70;;;4.53;;
66830;SDS011;53739;44.224;22.528;2022-08-26T12:16:48;17.33;;;4.95;;
66830;SDS011;53739;44.224;22.528;2022-08-26T12:19:21;11.65;;;4.00;;
66830;SDS011;53739;44.224;22.528;2022-08-26T12:22:03;17.38;;;5.05;;
66830;SDS011;53739;44.224;22.528;2022-08-26T12:27:16;20.67;;;4.82;;
66830;SDS011;53739;44.224;22.528;2022-08-26T12:29:43;16.30;;;5.00;;
66830;SDS011;53739;44.224;22.528;2022-08-26T12:32:12;28.90;;;5.13;;
66830;SDS011;53739;44.224;22.528;2022-08-26T12:34:41;19.15;;;3.53;;
66830;SDS011;53739;44.224;22.528;2022-08-26T12:37:12;18.73;;;5.25;;
66830;SDS011;53739;44.224;22.528;2022-08-26T12:39:43;13.48;;;4.18;;
66830;SDS011;53739;44.224;22.528;2022-08-26T12:44:42;18.15;;;4.50;;
66830;SDS011;53739;44.224;22.528;2022-08-26T12:47:20;19.67;;;4.70;;
66830;SDS011;53739;44.224;22.528;2022-08-26T12:50:06;22.05;;;4.82;;
66830;SDS011;53739;44.224;22.528;2022-08-26T12:55:24;15.95;;;4.28;;
66830;SDS011;53739;44.224;22.528;2022-08-26T12:58:10;25.00;;;5.78;;
66830;SDS011;53739;44.224;22.528;2022-08-26T13:00:42;20.80;;;4.85;;
66830;SDS011;53739;44.224;22.528;2022-08-26T13:11:32;15.32;;;4.82;;
66830;SDS011;53739;44.224;22.528;2022-08-26T13:14:02;11.82;;;4.15;;
66830;SDS011;53739;44.224;22.528;2022-08-26T13:16:30;18.10;;;5.03;;
66830;SDS011;53739;44.224;22.528;2022-08-26T13:19:02;19.52;;;5.03;;
66830;SDS011;53739;44.224;22.528;2022-08-26T13:21:31;17.73;;;4.63;;
66830;SDS011;53739;44.224;22.528;2022-08-26T13:24:04;19.13;;;4.95;;
66830;SDS011;53739;44.224;22.528;2022-08-26T13:26:36;18.17;;;4.80;;
66830;SDS011;53739;44.224;22.528;2022-08-26T13:29:03;18.52;;;4.63;;
66830;SDS011;53739;44.224;22.528;2022-08-26T13:31:30;15.15;;;4.22;;
66830;SDS011;53739;44.224;22.528;2022-08-26T13:33:59;16.88;;;4.85;;
66830;SDS011;53739;44.224;22.528;2022-08-26T13:36:26;17.25;;;4.25;;
66830;SDS011;53739;44.224;22.528;2022-08-26T13:38:53;16.13;;;4.50;;
66830;SDS011;53739;44.224;22.528;2022-08-26T13:41:19;18.70;;;5.50;;
66830;SDS011;53739;44.224;22.528;2022-08-26T13:43:45;18.30;;;4.32;;
66830;SDS011;53739;44.224;22.528;2022-08-26T13:46:12;15.05;;;4.22;;
66830;SDS011;53739;44.224;22.528;2022-08-26T13:48:38;18.90;;;5.40;;
66830;SDS011;53739;44.224;22.528;2022-08-26T13:51:06;21.02;;;4.95;;
66830;SDS011;53739;44.224;22.528;2022-08-26T13:53:34;21.70;;;4.35;;
66830;SDS011;53739;44.224;22.528;2022-08-26T13:56:00;18.92;;;4.70;;
66830;SDS011;53739;44.224;22.528;2022-08-26T13:58:27;15.13;;;4.38;;
66830;SDS011;53739;44.224;22.528;2022-08-26T14:00:53;15.80;;;4.53;;
66830;SDS011;53739;44.224;22.528;2022-08-26T14:03:22;18.92;;;5.03;;
66830;SDS011;53739;44.224;22.528;2022-08-26T14:05:49;14.75;;;3.65;;
66830;SDS011;53739;44.224;22.528;2022-08-26T14:08:17;19.27;;;4.70;;
66830;SDS011;53739;44.224;22.528;2022-08-26T14:10:45;19.15;;;4.47;;
66830;SDS011;53739;44.224;22.528;2022-08-26T14:13:11;15.55;;;4.07;;
66830;SDS011;53739;44.224;22.528;2022-08-26T14:15:37;18.15;;;5.18;;
66830;SDS011;53739;44.224;22.528;2022-08-26T14:18:04;23.92;;;4.57;;
66830;SDS011;53739;44.224;22.528;2022-08-26T14:20:34;19.92;;;4.88;;
66830;SDS011;53739;44.224;22.528;2022-08-26T14:23:01;17.10;;;4.80;;
66830;SDS011;53739;44.224;22.528;2022-08-26T14:25:28;19.95;;;5.18;;
66830;SDS011;53739;44.224;22.528;2022-08-26T14:27:55;14.23;;;4.65;;
66830;SDS011;53739;44.224;22.528;2022-08-26T14:30:23;23.38;;;5.78;;
66830;SDS011;53739;44.224;22.528;2022-08-26T14:32:51;17.35;;;4.97;;
66830;SDS011;53739;44.224;22.528;2022-08-26T14:35:22;20.02;;;4.75;;
66830;SDS011;53739;44.224;22.528;2022-08-26T14:37:50;19.02;;;5.00;;
66830;SDS011;53739;44.224;22.528;2022-08-26T14:40:18;22.98;;;4.53;;
66830;SDS011;53739;44.224;22.528;2022-08-26T14:42:46;13.15;;;4.68;;
66830;SDS011;53739;44.224;22.528;2022-08-26T14:45:21;18.15;;;4.68;;
66830;SDS011;53739;44.224;22.528;2022-08-26T14:47:51;18.85;;;5.05;;
66830;SDS011;53739;44.224;22.528;2022-08-26T14:50:20;20.40;;;6.32;;
66830;SDS011;53739;44.224;22.528;2022-08-26T14:52:49;18.52;;;7.03;;
66830;SDS011;53739;44.224;22.528;2022-08-26T14:55:35;19.08;;;8.20;;
66830;SDS011;53739;44.224;22.528;2022-08-26T14:58:03;18.33;;;7.78;;
66830;SDS011;53739;44.224;22.528;2022-08-26T15:00:29;23.80;;;8.02;;
66830;SDS011;53739;44.224;22.528;2022-08-26T15:02:55;21.48;;;7.18;;
66830;SDS011;53739;44.224;22.528;2022-08-26T15:05:22;23.88;;;7.43;;
66830;SDS011;53739;44.224;22.528;2022-08-26T15:07:49;24.08;;;7.35;;
66830;SDS011;53739;44.224;22.528;2022-08-26T15:10:15;23.17;;;7.78;;
66830;SDS011;53739;44.224;22.528;2022-08-26T15:12:42;23.65;;;7.72;;
66830;SDS011;53739;44.224;22.528;2022-08-26T15:15:09;17.95;;;7.25;;
66830;SDS011;53739;44.224;22.528;2022-08-26T15:17:37;23.13;;;7.03;;
66830;SDS011;53739;44.224;22.528;2022-08-26T15:20:04;19.05;;;7.88;;
66830;SDS011;53739;44.224;22.528;2022-08-26T15:22:32;14.63;;;6.68;;
66830;SDS011;53739;44.224;22.528;2022-08-26T15:24:59;20.25;;;7.78;;
66830;SDS011;53739;44.224;22.528;2022-08-26T15:27:26;25.75;;;8.20;;
66830;SDS011;53739;44.224;22.528;2022-08-26T15:29:52;20.92;;;8.40;;
66830;SDS011;53739;44.224;22.528;2022-08-26T15:32:19;34.80;;;8.85;;
66830;SDS011;53739;44.224;22.528;2022-08-26T15:34:45;25.92;;;9.18;;
66830;SDS011;53739;44.224;22.528;2022-08-26T15:37:14;21.75;;;8.52;;
66830;SDS011;53739;44.224;22.528;2022-08-26T15:39:40;23.80;;;7.88;;
66830;SDS011;53739;44.224;22.528;2022-08-26T15:42:06;17.25;;;7.82;;
66830;SDS011;53739;44.224;22.528;2022-08-26T15:44:33;18.27;;;6.80;;
66830;SDS011;53739;44.224;22.528;2022-08-26T15:47:00;18.52;;;8.82;;
66830;SDS011;53739;44.224;22.528;2022-08-26T15:49:27;20.58;;;8.48;;
66830;SDS011;53739;44.224;22.528;2022-08-26T15:51:52;17.73;;;7.95;;
66830;SDS011;53739;44.224;22.528;2022-08-26T15:54:20;18.38;;;7.80;;
66830;SDS011;53739;44.224;22.528;2022-08-26T15:56:47;20.67;;;8.77;;
66830;SDS011;53739;44.224;22.528;2022-08-26T15:59:16;17.77;;;8.63;;
66830;SDS011;53739;44.224;22.528;2022-08-26T16:01:44;17.35;;;9.27;;
66830;SDS011;53739;44.224;22.528;2022-08-26T16:04:10;24.85;;;8.70;;
66830;SDS011;53739;44.224;22.528;2022-08-26T16:06:39;29.10;;;8.80;;
66830;SDS011;53739;44.224;22.528;2022-08-26T16:09:07;20.10;;;7.68;;
66830;SDS011;53739;44.224;22.528;2022-08-26T16:11:34;17.35;;;7.85;;
66830;SDS011;53739;44.224;22.528;2022-08-26T16:14:00;19.38;;;9.23;;
66830;SDS011;53739;44.224;22.528;2022-08-26T16:16:29;24.20;;;9.15;;
66830;SDS011;53739;44.224;22.528;2022-08-26T16:18:56;23.27;;;8.35;;
66830;SDS011;53739;44.224;22.528;2022-08-26T16:21:23;21.48;;;8.82;;
66830;SDS011;53739;44.224;22.528;2022-08-26T16:23:54;32.33;;;9.93;;
66830;SDS011;53739;44.224;22.528;2022-08-26T16:26:22;19.02;;;9.35;;
66830;SDS011;53739;44.224;22.528;2022-08-26T16:28:51;24.38;;;9.38;;
66830;SDS011;53739;44.224;22.528;2022-08-26T16:31:18;24.17;;;9.52;;
66830;SDS011;53739;44.224;22.528;2022-08-26T16:33:45;25.30;;;10.27;;
66830;SDS011;53739;44.224;22.528;2022-08-26T16:36:12;25.77;;;11.02;;
66830;SDS011;53739;44.224;22.528;2022-08-26T16:38:40;28.42;;;9.98;;
66830;SDS011;53739;44.224;22.528;2022-08-26T16:41:11;22.00;;;9.73;;
66830;SDS011;53739;44.224;22.528;2022-08-26T16:43:37;23.38;;;9.05;;
66830;SDS011;53739;44.224;22.528;2022-08-26T16:46:04;18.13;;;8.43;;
66830;SDS011;53739;44.224;22.528;2022-08-26T16:48:31;32.17;;;10.48;;
66830;SDS011;53739;44.224;22.528;2022-08-26T16:50:58;26.83;;;9.75;;
66830;SDS011;53739;44.224;22.528;2022-08-26T16:53:24;18.75;;;9.65;;
66830;SDS011;53739;44.224;22.528;2022-08-26T16:55:50;26.13;;;9.80;;
66830;SDS011;53739;44.224;22.528;2022-08-26T16:58:17;24.05;;;9.95;;
66830;SDS011;53739;44.224;22.528;2022-08-26T17:00:46;28.50;;;9.23;;
66830;SDS011;53739;44.224;22.528;2022-08-26T17:03:13;30.13;;;10.63;;
66830;SDS011;53739;44.224;22.528;2022-08-26T17:05:40;27.83;;;10.45;;
66830;SDS011;53739;44.224;22.528;2022-08-26T17:08:06;20.17;;;9.38;;
66830;SDS011;53739;44.224;22.528;2022-08-26T17:10:33;26.77;;;10.63;;
66830;SDS011;53739;44.224;22.528;2022-08-26T17:13:00;21.13;;;10.60;;
66830;SDS011;53739;44.224;22.528;2022-08-26T17:15:27;22.80;;;10.15;;
66830;SDS011;53739;44.224;22.528;2022-08-26T17:17:54;24.20;;;10.52;;
66830;SDS011;53739;44.224;22.528;2022-08-26T17:20:21;17.65;;;9.73;;
66830;SDS011;53739;44.224;22.528;2022-08-26T17:22:49;22.77;;;10.23;;
66830;SDS011;53739;44.224;22.528;2022-08-26T17:25:24;26.95;;;10.75;;
66830;SDS011;53739;44.224;22.528;2022-08-26T17:27:56;27.98;;;11.35;;
66830;SDS011;53739;44.224;22.528;2022-08-26T17:30:22;29.60;;;10.68;;
66830;SDS011;53739;44.224;22.528;2022-08-26T17:32:53;19.30;;;10.15;;
66830;SDS011;53739;44.224;22.528;2022-08-26T17:35:20;21.65;;;10.32;;
66830;SDS011;53739;44.224;22.528;2022-08-26T17:37:48;27.17;;;10.15;;
66830;SDS011;53739;44.224;22.528;2022-08-26T17:40:16;24.48;;;11.32;;
66830;SDS011;53739;44.224;22.528;2022-08-26T17:42:46;26.20;;;11.15;;
66830;SDS011;53739;44.224;22.528;2022-08-26T17:45:19;22.70;;;11.30;;
66830;SDS011;53739;44.224;22.528;2022-08-26T17:47:55;40.13;;;11.63;;
66830;SDS011;53739;44.224;22.528;2022-08-26T17:50:28;32.30;;;10.98;;
66830;SDS011;53739;44.224;22.528;2022-08-26T17:52:58;22.90;;;10.95;;
66830;SDS011;53739;44.224;22.528;2022-08-26T17:55:29;27.17;;;11.35;;
66830;SDS011;53739;44.224;22.528;2022-08-26T17:57:55;27.27;;;11.15;;
66830;SDS011;53739;44.224;22.528;2022-08-26T18:00:24;29.05;;;11.55;;
66830;SDS011;53739;44.224;22.528;2022-08-26T18:56:04;24.75;;;11.77;;
66830;SDS011;53739;44.224;22.528;2022-08-26T18:58:31;22.95;;;12.23;;
66830;SDS011;53739;44.224;22.528;2022-08-26T19:00:58;26.98;;;11.25;;
66830;SDS011;53739;44.224;22.528;2022-08-26T19:03:24;22.45;;;11.73;;
66830;SDS011;53739;44.224;22.528;2022-08-26T19:05:53;29.45;;;12.10;;
66830;SDS011;53739;44.224;22.528;2022-08-26T19:08:19;27.08;;;12.50;;
66830;SDS011;53739;44.224;22.528;2022-08-26T19:10:45;29.77;;;12.00;;
66830;SDS011;53739;44.224;22.528;2022-08-26T19:13:11;24.75;;;12.75;;
66830;SDS011;53739;44.224;22.528;2022-08-26T19:15:39;20.70;;;12.65;;
66830;SDS011;53739;44.224;22.528;2022-08-26T19:18:07;27.15;;;13.02;;
66830;SDS011;53739;44.224;22.528;2022-08-26T19:20:41;29.58;;;16.45;;
66830;SDS011;53739;44.224;22.528;2022-08-26T19:23:12;32.92;;;16.50;;
66830;SDS011;53739;44.224;22.528;2022-08-26T19:25:40;30.35;;;14.88;;
66830;SDS011;53739;44.224;22.528;2022-08-26T19:28:08;23.77;;;13.32;;
66830;SDS011;53739;44.224;22.528;2022-08-26T19:30:38;24.48;;;12.80;;
66830;SDS011;53739;44.224;22.528;2022-08-26T19:36:24;27.55;;;11.68;;
66830;SDS011;53739;44.224;22.528;2022-08-26T19:38:51;24.90;;;12.50;;
66830;SDS011;53739;44.224;22.528;2022-08-26T19:41:22;26.00;;;13.25;;
66830;SDS011;53739;44.224;22.528;2022-08-26T19:43:56;25.58;;;12.82;;
66830;SDS011;53739;44.224;22.528;2022-08-26T19:46:30;23.75;;;12.55;;
66830;SDS011;53739;44.224;22.528;2022-08-26T19:48:57;25.67;;;11.50;;